Ever Lissome — 2HDG3 — position and weather

sailwx.info

Track history (hours):
 
Tides and Currents Weather Stations Pressure Air Temp Water Temp Dewpoint Dewpoint Depression Visibility Wind Speed Wind Dir Waves Ship Positions

Ever Lissome

Last reported at 2017-Dec-15 18:16 UTC. Time now 2017-Dec-16 03:41 UTC.
Position N 34°47' E 140°20'.

Length 335 m; draft 13.3 m.

Type: Cargo ship. MMSI: 235077673.

Date/timePositionNaut miles runAvg speedWind from/ knotsBaromVisibWave heightAir tempDewpointWater temp
2017-Dec-15 18:16N 34°47' E 140°20'620.6
2017-Dec-15 18:00N 34°46' E 140°13'73154.5
2017-Dec-15 18:00N 34°42' E 140°06'611.2 270 / 201020.0 5.4 12.012.020.0
2017-Dec-15 17:29N 34°45' E 140°00'1220.6
2017-Dec-15 16:56N 34°42' E 139°46'919.9
2017-Dec-15 16:27N 34°39' E 139°36'921.0
2017-Dec-15 16:01N 34°35' E 139°25'1121.2
2017-Dec-15 15:30N 34°33' E 139°13'1020.8
2017-Dec-15 15:00N 34°28' E 139°02'1221.4
2017-Dec-15 14:28N 34°24' E 138°49'1021.3
2017-Dec-15 14:00N 34°19' E 138°38'1020.9
2017-Dec-15 13:30N 34°14' E 138°27'1020.5
2017-Dec-15 13:00N 34°10' E 138°16'1020.3
2017-Dec-15 12:30N 34°05' E 138°05'1020.0
2017-Dec-15 12:00N 34°00' E 137°54'70058.3
2017-Dec-15 00:00N 23°00' E 133°30'66418.7 100 / 141026.5 13.011.114.0
2017-Dec-13 12:27N 25°48' E 121°45'819.0
2017-Dec-13 12:00N 25°44' E 121°37'1218.5
2017-Dec-13 11:23N 25°38' E 121°26'817.8
2017-Dec-13 10:56N 25°34' E 121°19'817.5
2017-Dec-13 10:31N 25°30' E 121°11'917.8
2017-Dec-13 10:00N 25°25' E 121°03'917.5
2017-Dec-13 09:31N 25°20' E 120°55'917.5
2017-Dec-13 08:59N 25°15' E 120°47'2217.6
2017-Dec-13 07:44N 25°03' E 120°26'418.0
2017-Dec-13 07:30N 25°00' E 120°23'1217.5
2017-Dec-13 06:49N 24°54' E 120°12'  
2017-Dec-10 07:09N 22°20' E 114°08'0 1.8
2017-Dec-10 06:56N 22°19' E 114°07'25017.5
2017-Dec-09 16:40N 23°59' E 118°17'321.2
2017-Dec-09 16:30N 24°00' E 118°20'1019.3
2017-Dec-09 16:00N 24°10' E 118°23'917.2
2017-Dec-09 15:30N 24°15' E 118°15'611.9
2017-Dec-09 15:00N 24°19' E 118°11'611.6
2017-Dec-09 14:30N 24°24' E 118°07'611.8
2017-Dec-09 14:00N 24°26' E 118°01'2 4.6
2017-Dec-09 13:30N 24°27' E 117°59'0 0.1
2017-Dec-09 12:59N 24°27' E 117°59'0 0.0
2017-Dec-09 12:29N 24°27' E 117°59'0 0.0
2017-Dec-09 11:59N 24°27' E 117°59'0 0.0
2017-Dec-09 11:29N 24°27' E 117°59'0 0.1
2017-Dec-09 10:59N 24°27' E 117°59'0 0.0
2017-Dec-09 10:29N 24°27' E 117°59'0 0.1
2017-Dec-09 09:59N 24°27' E 117°59'0 0.0
2017-Dec-09 09:29N 24°27' E 117°59'0 0.1
2017-Dec-09 08:59N 24°27' E 117°59'0 0.0
2017-Dec-09 08:29N 24°27' E 117°59'0 0.0
2017-Dec-09 07:59N 24°27' E 117°59'0 0.1
2017-Dec-09 07:29N 24°27' E 117°59'0 0.0
2017-Dec-09 06:59N 24°27' E 117°59'0 0.0
2017-Dec-09 06:29N 24°27' E 117°59'0 0.0
2017-Dec-09 05:59N 24°27' E 117°59'0 0.0
2017-Dec-09 05:29N 24°27' E 117°59'0 0.0
2017-Dec-09 04:59N 24°27' E 117°59'0 0.1
2017-Dec-09 04:26N 24°27' E 117°59'0 0.1
2017-Dec-09 03:59N 24°27' E 117°59'0 0.1
2017-Dec-09 03:29N 24°27' E 117°59'0 0.0
2017-Dec-09 02:59N 24°27' E 117°59'0 0.0
2017-Dec-09 02:29N 24°27' E 117°59'0 0.1
2017-Dec-09 01:59N 24°27' E 117°59'0 0.1
2017-Dec-09 01:29N 24°27' E 117°59'0 0.1
2017-Dec-09 00:59N 24°27' E 117°59'0 0.0
2017-Dec-09 00:29N 24°27' E 117°59'0 0.0
2017-Dec-08 23:59N 24°27' E 117°59'0 0.0
2017-Dec-08 23:29N 24°27' E 117°59'0 0.0
2017-Dec-08 22:59N 24°27' E 117°59'0 0.1
2017-Dec-08 22:29N 24°27' E 117°59'0 0.1
2017-Dec-08 21:59N 24°27' E 117°59'0 0.1
2017-Dec-08 21:29N 24°27' E 117°59'0 0.1
2017-Dec-08 20:59N 24°27' E 117°59'0 0.1
2017-Dec-08 20:29N 24°27' E 117°59'0 0.1
2017-Dec-08 19:59N 24°27' E 117°59'0 0.1
2017-Dec-08 19:29N 24°27' E 117°59'0 0.0
2017-Dec-08 18:59N 24°27' E 117°59'0 0.2
2017-Dec-08 18:30N 24°27' E 117°59'1 2.1
2017-Dec-08 18:00N 24°27' E 117°60'510.8
2017-Dec-08 17:31N 24°25' E 118°05'5 9.2
2017-Dec-08 17:00N 24°22' E 118°09'4 7.8
2017-Dec-08 16:30N 24°19' E 118°12'4 8.7
2017-Dec-08 16:00N 24°15' E 118°15'3 6.9
2017-Dec-08 15:30N 24°14' E 118°18'4 7.3
2017-Dec-08 15:01N 24°11' E 118°21'611.5
2017-Dec-08 14:30N 24°07' E 118°25'713.5
2017-Dec-08 14:00N 24°03' E 118°31'10015.8
2017-Dec-08 07:40N 22°53' E 119°50'320.2
2017-Dec-08 07:30N 22°52' E 119°53'1019.0
2017-Dec-08 07:00N 22°43' E 119°56'1019.6
2017-Dec-08 06:30N 22°36' E 120°03'1019.8
2017-Dec-08 06:00N 22°33' E 120°13'611.4
2017-Dec-08 05:30N 22°33' E 120°19'0 0.7
2017-Dec-08 04:58N 22°33' E 120°19'0 0.0
2017-Dec-08 04:28N 22°33' E 120°19'0 0.0
2017-Dec-08 03:58N 22°33' E 120°19'0 0.0
2017-Dec-08 03:28N 22°33' E 120°19'0 0.0
2017-Dec-08 02:58N 22°33' E 120°19'0 0.0
2017-Dec-08 02:28N 22°33' E 120°19'0 0.0
2017-Dec-08 01:58N 22°33' E 120°19'0 0.0
2017-Dec-08 01:28N 22°33' E 120°19'0 0.0
2017-Dec-08 00:58N 22°33' E 120°19'0 0.1
2017-Dec-08 00:28N 22°33' E 120°19'0 0.1
2017-Dec-07 23:55N 22°33' E 120°19'0 0.0
2017-Dec-07 23:28N 22°33' E 120°19'0 0.0
2017-Dec-07 22:58N 22°33' E 120°19'0 0.0
2017-Dec-07 22:28N 22°33' E 120°19'0 0.0
2017-Dec-07 21:58N 22°33' E 120°19'0 0.0
2017-Dec-07 21:28N 22°33' E 120°19'0 0.0
2017-Dec-07 20:58N 22°33' E 120°19'0 0.0
2017-Dec-07 20:28N 22°33' E 120°19'0 0.0
2017-Dec-07 19:58N 22°33' E 120°19'0 0.0
2017-Dec-07 19:28N 22°33' E 120°19'0 0.0
2017-Dec-07 18:58N 22°33' E 120°19'0 0.0
2017-Dec-07 18:28N 22°33' E 120°19'0 0.0
2017-Dec-07 17:58N 22°33' E 120°19'0 0.0
2017-Dec-07 17:28N 22°33' E 120°19'0 0.0
2017-Dec-07 16:58N 22°33' E 120°19'0 0.0
2017-Dec-07 16:28N 22°33' E 120°19'0 0.0
2017-Dec-07 15:58N 22°33' E 120°19'0 0.0
2017-Dec-07 15:28N 22°33' E 120°19'0 0.0
2017-Dec-07 14:58N 22°33' E 120°19'0 0.0
2017-Dec-07 14:28N 22°33' E 120°19'0 0.0
2017-Dec-07 13:58N 22°33' E 120°19'0 0.0
2017-Dec-07 13:28N 22°33' E 120°19'0 0.0
2017-Dec-07 12:58N 22°33' E 120°19'0 0.0
2017-Dec-07 12:28N 22°33' E 120°19'0 0.0
2017-Dec-07 11:58N 22°33' E 120°19'0 0.0
2017-Dec-07 11:28N 22°33' E 120°19'0 0.0
2017-Dec-07 10:58N 22°33' E 120°19'0 0.0
2017-Dec-07 10:28N 22°33' E 120°19'0 0.0
2017-Dec-07 09:58N 22°33' E 120°19'0 0.0
2017-Dec-07 09:28N 22°33' E 120°19'0 0.0
2017-Dec-07 08:58N 22°33' E 120°19'0 0.0
2017-Dec-07 08:28N 22°33' E 120°19'0 0.0
2017-Dec-07 07:58N 22°33' E 120°19'0 0.0
2017-Dec-07 07:28N 22°33' E 120°19'0 0.0
2017-Dec-07 06:58N 22°33' E 120°19'0 0.0
2017-Dec-07 06:25N 22°33' E 120°19'0 0.0
2017-Dec-07 05:58N 22°33' E 120°19'0 0.0
2017-Dec-07 05:28N 22°33' E 120°19'0 0.0
2017-Dec-07 04:55N 22°33' E 120°19'0 0.0
2017-Dec-07 04:19N 22°33' E 120°19'0 0.0
2017-Dec-07 03:58N 22°33' E 120°19'0 0.0
2017-Dec-07 03:28N 22°33' E 120°19'0 0.0
2017-Dec-07 02:58N 22°33' E 120°19'0 0.0
2017-Dec-07 02:28N 22°33' E 120°19'0 0.0
2017-Dec-07 01:58N 22°33' E 120°19'0 0.0
2017-Dec-07 01:28N 22°33' E 120°19'0 0.0
2017-Dec-07 00:58N 22°33' E 120°19'0 0.0
2017-Dec-07 00:28N 22°33' E 120°19'0 0.0
2017-Dec-06 23:58N 22°33' E 120°19'0 0.0
2017-Dec-06 23:28N 22°33' E 120°19'0 0.0
2017-Dec-06 22:58N 22°33' E 120°19'0 0.0
2017-Dec-06 22:25N 22°33' E 120°19'0 0.0
2017-Dec-06 21:58N 22°33' E 120°19'0 0.0
2017-Dec-06 21:28N 22°33' E 120°19'0 0.0
2017-Dec-06 20:58N 22°33' E 120°19'  
Track history (hours):
 
Tides and Currents Weather Stations Pressure Air Temp Water Temp Dewpoint Dewpoint Depression Visibility Wind Speed Wind Dir Waves Ship Positions

Ever Lissome

Last reported at 2017-Dec-15 18:16 UTC. Time now 2017-Dec-16 03:41 UTC.
Position N 34°47' E 140°20'.

Length 335 m; draft 13.3 m.

Type: Cargo ship. MMSI: 235077673.

Date/timePositionNaut miles runAvg speedWind from/ knotsBaromVisibWave heightAir tempDewpointWater temp
2017-Dec-15 18:16N 34°47' E 140°20'620.6
2017-Dec-15 18:00N 34°46' E 140°13'73154.5
2017-Dec-15 18:00N 34°42' E 140°06'611.2 270 / 201020.0 5.4 12.012.020.0
2017-Dec-15 17:29N 34°45' E 140°00'1220.6
2017-Dec-15 16:56N 34°42' E 139°46'919.9
2017-Dec-15 16:27N 34°39' E 139°36'921.0
2017-Dec-15 16:01N 34°35' E 139°25'1121.2
2017-Dec-15 15:30N 34°33' E 139°13'1020.8
2017-Dec-15 15:00N 34°28' E 139°02'1221.4
2017-Dec-15 14:28N 34°24' E 138°49'1021.3
2017-Dec-15 14:00N 34°19' E 138°38'1020.9
2017-Dec-15 13:30N 34°14' E 138°27'1020.5
2017-Dec-15 13:00N 34°10' E 138°16'1020.3
2017-Dec-15 12:30N 34°05' E 138°05'1020.0
2017-Dec-15 12:00N 34°00' E 137°54'70058.3
2017-Dec-15 00:00N 23°00' E 133°30'66418.7 100 / 141026.5 13.011.114.0
2017-Dec-13 12:27N 25°48' E 121°45'819.0
2017-Dec-13 12:00N 25°44' E 121°37'1218.5
2017-Dec-13 11:23N 25°38' E 121°26'817.8
2017-Dec-13 10:56N 25°34' E 121°19'817.5
2017-Dec-13 10:31N 25°30' E 121°11'917.8
2017-Dec-13 10:00N 25°25' E 121°03'917.5
2017-Dec-13 09:31N 25°20' E 120°55'917.5
2017-Dec-13 08:59N 25°15' E 120°47'2217.6
2017-Dec-13 07:44N 25°03' E 120°26'418.0
2017-Dec-13 07:30N 25°00' E 120°23'1217.5
2017-Dec-13 06:49N 24°54' E 120°12'  
2017-Dec-10 07:09N 22°20' E 114°08'0 1.8
2017-Dec-10 06:56N 22°19' E 114°07'25017.5
2017-Dec-09 16:40N 23°59' E 118°17'321.2
2017-Dec-09 16:30N 24°00' E 118°20'1019.3
2017-Dec-09 16:00N 24°10' E 118°23'917.2
2017-Dec-09 15:30N 24°15' E 118°15'611.9
2017-Dec-09 15:00N 24°19' E 118°11'611.6
2017-Dec-09 14:30N 24°24' E 118°07'611.8
2017-Dec-09 14:00N 24°26' E 118°01'2 4.6
2017-Dec-09 13:30N 24°27' E 117°59'0 0.1
2017-Dec-09 12:59N 24°27' E 117°59'0 0.0
2017-Dec-09 12:29N 24°27' E 117°59'0 0.0
2017-Dec-09 11:59N 24°27' E 117°59'0 0.0
2017-Dec-09 11:29N 24°27' E 117°59'0 0.1
2017-Dec-09 10:59N 24°27' E 117°59'0 0.0
2017-Dec-09 10:29N 24°27' E 117°59'0 0.1
2017-Dec-09 09:59N 24°27' E 117°59'0 0.0
2017-Dec-09 09:29N 24°27' E 117°59'0 0.1
2017-Dec-09 08:59N 24°27' E 117°59'0 0.0
2017-Dec-09 08:29N 24°27' E 117°59'0 0.0
2017-Dec-09 07:59N 24°27' E 117°59'0 0.1
2017-Dec-09 07:29N 24°27' E 117°59'0 0.0
2017-Dec-09 06:59N 24°27' E 117°59'0 0.0
2017-Dec-09 06:29N 24°27' E 117°59'0 0.0
2017-Dec-09 05:59N 24°27' E 117°59'0 0.0
2017-Dec-09 05:29N 24°27' E 117°59'0 0.0
2017-Dec-09 04:59N 24°27' E 117°59'0 0.1
2017-Dec-09 04:26N 24°27' E 117°59'0 0.1
2017-Dec-09 03:59N 24°27' E 117°59'0 0.1
2017-Dec-09 03:29N 24°27' E 117°59'0 0.0
2017-Dec-09 02:59N 24°27' E 117°59'0 0.0
2017-Dec-09 02:29N 24°27' E 117°59'0 0.1
2017-Dec-09 01:59N 24°27' E 117°59'0 0.1
2017-Dec-09 01:29N 24°27' E 117°59'0 0.1
2017-Dec-09 00:59N 24°27' E 117°59'0 0.0
2017-Dec-09 00:29N 24°27' E 117°59'0 0.0
2017-Dec-08 23:59N 24°27' E 117°59'0 0.0
2017-Dec-08 23:29N 24°27' E 117°59'0 0.0
2017-Dec-08 22:59N 24°27' E 117°59'0 0.1
2017-Dec-08 22:29N 24°27' E 117°59'0 0.1
2017-Dec-08 21:59N 24°27' E 117°59'0 0.1
2017-Dec-08 21:29N 24°27' E 117°59'0 0.1
2017-Dec-08 20:59N 24°27' E 117°59'0 0.1
2017-Dec-08 20:29N 24°27' E 117°59'0 0.1
2017-Dec-08 19:59N 24°27' E 117°59'0 0.1
2017-Dec-08 19:29N 24°27' E 117°59'0 0.0
2017-Dec-08 18:59N 24°27' E 117°59'0 0.2
2017-Dec-08 18:30N 24°27' E 117°59'1 2.1
2017-Dec-08 18:00N 24°27' E 117°60'510.8
2017-Dec-08 17:31N 24°25' E 118°05'5 9.2
2017-Dec-08 17:00N 24°22' E 118°09'4 7.8
2017-Dec-08 16:30N 24°19' E 118°12'4 8.7
2017-Dec-08 16:00N 24°15' E 118°15'3 6.9
2017-Dec-08 15:30N 24°14' E 118°18'4 7.3
2017-Dec-08 15:01N 24°11' E 118°21'611.5
2017-Dec-08 14:30N 24°07' E 118°25'713.5
2017-Dec-08 14:00N 24°03' E 118°31'10015.8
2017-Dec-08 07:40N 22°53' E 119°50'320.2
2017-Dec-08 07:30N 22°52' E 119°53'1019.0
2017-Dec-08 07:00N 22°43' E 119°56'1019.6
2017-Dec-08 06:30N 22°36' E 120°03'1019.8
2017-Dec-08 06:00N 22°33' E 120°13'611.4
2017-Dec-08 05:30N 22°33' E 120°19'0 0.7
2017-Dec-08 04:58N 22°33' E 120°19'0 0.0
2017-Dec-08 04:28N 22°33' E 120°19'0 0.0
2017-Dec-08 03:58N 22°33' E 120°19'0 0.0
2017-Dec-08 03:28N 22°33' E 120°19'0 0.0
2017-Dec-08 02:58N 22°33' E 120°19'0 0.0
2017-Dec-08 02:28N 22°33' E 120°19'0 0.0
2017-Dec-08 01:58N 22°33' E 120°19'0 0.0
2017-Dec-08 01:28N 22°33' E 120°19'0 0.0
2017-Dec-08 00:58N 22°33' E 120°19'0 0.1
2017-Dec-08 00:28N 22°33' E 120°19'0 0.1
2017-Dec-07 23:55N 22°33' E 120°19'0 0.0
2017-Dec-07 23:28N 22°33' E 120°19'0 0.0
2017-Dec-07 22:58N 22°33' E 120°19'0 0.0
2017-Dec-07 22:28N 22°33' E 120°19'0 0.0
2017-Dec-07 21:58N 22°33' E 120°19'0 0.0
2017-Dec-07 21:28N 22°33' E 120°19'0 0.0
2017-Dec-07 20:58N 22°33' E 120°19'0 0.0
2017-Dec-07 20:28N 22°33' E 120°19'0 0.0
2017-Dec-07 19:58N 22°33' E 120°19'0 0.0
2017-Dec-07 19:28N 22°33' E 120°19'0 0.0
2017-Dec-07 18:58N 22°33' E 120°19'0 0.0
2017-Dec-07 18:28N 22°33' E 120°19'0 0.0
2017-Dec-07 17:58N 22°33' E 120°19'0 0.0
2017-Dec-07 17:28N 22°33' E 120°19'0 0.0
2017-Dec-07 16:58N 22°33' E 120°19'0 0.0
2017-Dec-07 16:28N 22°33' E 120°19'0 0.0
2017-Dec-07 15:58N 22°33' E 120°19'0 0.0
2017-Dec-07 15:28N 22°33' E 120°19'0 0.0
2017-Dec-07 14:58N 22°33' E 120°19'0 0.0
2017-Dec-07 14:28N 22°33' E 120°19'0 0.0
2017-Dec-07 13:58N 22°33' E 120°19'0 0.0
2017-Dec-07 13:28N 22°33' E 120°19'0 0.0
2017-Dec-07 12:58N 22°33' E 120°19'0 0.0
2017-Dec-07 12:28N 22°33' E 120°19'0 0.0
2017-Dec-07 11:58N 22°33' E 120°19'0 0.0
2017-Dec-07 11:28N 22°33' E 120°19'0 0.0
2017-Dec-07 10:58N 22°33' E 120°19'0 0.0
2017-Dec-07 10:28N 22°33' E 120°19'0 0.0
2017-Dec-07 09:58N 22°33' E 120°19'0 0.0
2017-Dec-07 09:28N 22°33' E 120°19'0 0.0
2017-Dec-07 08:58N 22°33' E 120°19'0 0.0
2017-Dec-07 08:28N 22°33' E 120°19'0 0.0
2017-Dec-07 07:58N 22°33' E 120°19'0 0.0
2017-Dec-07 07:28N 22°33' E 120°19'0 0.0
2017-Dec-07 06:58N 22°33' E 120°19'0 0.0
2017-Dec-07 06:25N 22°33' E 120°19'0 0.0
2017-Dec-07 05:58N 22°33' E 120°19'0 0.0
2017-Dec-07 05:28N 22°33' E 120°19'0 0.0
2017-Dec-07 04:55N 22°33' E 120°19'0 0.0
2017-Dec-07 04:19N 22°33' E 120°19'0 0.0
2017-Dec-07 03:58N 22°33' E 120°19'0 0.0
2017-Dec-07 03:28N 22°33' E 120°19'0 0.0
2017-Dec-07 02:58N 22°33' E 120°19'0 0.0
2017-Dec-07 02:28N 22°33' E 120°19'0 0.0
2017-Dec-07 01:58N 22°33' E 120°19'0 0.0
2017-Dec-07 01:28N 22°33' E 120°19'0 0.0
2017-Dec-07 00:58N 22°33' E 120°19'0 0.0
2017-Dec-07 00:28N 22°33' E 120°19'0 0.0
2017-Dec-06 23:58N 22°33' E 120°19'0 0.0
2017-Dec-06 23:28N 22°33' E 120°19'0 0.0
2017-Dec-06 22:58N 22°33' E 120°19'0 0.0
2017-Dec-06 22:25N 22°33' E 120°19'0 0.0
2017-Dec-06 21:58N 22°33' E 120°19'0 0.0
2017-Dec-06 21:28N 22°33' E 120°19'0 0.0
2017-Dec-06 20:58N 22°33' E 120°19'  

Dump ship's entire track history